createdAt,value
2022-07-25T00:01:12.357Z,26.80
2022-07-25T00:03:39.281Z,26.79
2022-07-25T00:06:06.957Z,26.76
2022-07-25T00:08:40.151Z,26.80
2022-07-25T00:11:06.704Z,26.83
2022-07-25T00:13:33.361Z,26.81
2022-07-25T00:15:59.957Z,26.75
2022-07-25T00:18:26.634Z,26.66
2022-07-25T00:20:53.322Z,26.69
2022-07-25T00:23:20.094Z,26.68
2022-07-25T00:25:46.747Z,26.65
2022-07-25T00:28:13.476Z,26.62
2022-07-25T00:30:40.289Z,26.59
2022-07-25T00:33:06.990Z,26.52
2022-07-25T00:35:33.630Z,26.53
2022-07-25T00:38:00.158Z,26.53
2022-07-25T00:40:26.946Z,26.53
2022-07-25T00:42:53.613Z,26.50
2022-07-25T00:45:20.233Z,26.42
2022-07-25T00:47:46.793Z,26.38
2022-07-25T00:50:13.340Z,26.35
2022-07-25T00:52:39.976Z,26.33
2022-07-25T00:55:07.716Z,26.27
2022-07-25T00:57:34.377Z,26.24
2022-07-25T01:00:00.982Z,26.22
2022-07-25T01:02:27.713Z,26.21
2022-07-25T01:04:54.958Z,26.18
2022-07-25T01:07:21.784Z,26.16
2022-07-25T01:09:48.839Z,26.07
2022-07-25T01:12:15.548Z,26.08
2022-07-25T01:14:42.136Z,25.99
2022-07-25T01:17:08.876Z,25.99
2022-07-25T01:19:35.518Z,25.93
2022-07-25T01:22:02.060Z,25.91
2022-07-25T01:24:29.155Z,25.90
2022-07-25T01:26:55.796Z,25.88
2022-07-25T01:29:22.458Z,25.86
2022-07-25T01:31:49.050Z,25.88
2022-07-25T01:34:15.659Z,25.83
2022-07-25T01:36:42.572Z,25.81
2022-07-25T01:39:09.208Z,25.79
2022-07-25T01:41:35.964Z,25.78
2022-07-25T01:44:02.749Z,25.76
2022-07-25T01:46:29.664Z,25.72
2022-07-25T01:48:56.475Z,25.72
2022-07-25T01:51:23.082Z,25.71
2022-07-25T01:53:53.219Z,25.66
2022-07-25T01:56:22.402Z,25.67
2022-07-25T01:58:49.210Z,25.63
2022-07-25T02:01:15.857Z,25.57
2022-07-25T02:03:42.448Z,25.53
2022-07-25T02:06:09.027Z,25.47
2022-07-25T02:08:35.615Z,25.43
2022-07-25T02:11:02.663Z,25.45
2022-07-25T02:13:29.322Z,25.46
2022-07-25T02:15:55.889Z,25.40
2022-07-25T02:18:22.459Z,25.38
2022-07-25T02:20:49.104Z,25.34
2022-07-25T02:23:15.669Z,25.31
2022-07-25T02:25:42.296Z,25.25
2022-07-25T02:28:10.672Z,25.24
2022-07-25T02:30:37.628Z,25.16
2022-07-25T02:33:04.331Z,25.12
2022-07-25T02:35:30.955Z,24.97
2022-07-25T02:37:57.726Z,24.91
2022-07-25T02:40:24.285Z,24.84
2022-07-25T02:42:50.851Z,24.81
2022-07-25T02:45:17.950Z,24.84
2022-07-25T02:47:44.745Z,24.83
2022-07-25T02:50:14.808Z,24.80
2022-07-25T02:52:42.342Z,24.75
2022-07-25T02:55:10.040Z,24.71
2022-07-25T02:57:36.656Z,24.62
2022-07-25T03:00:05.065Z,24.49
2022-07-25T03:02:31.606Z,24.45
2022-07-25T03:04:58.205Z,24.46
2022-07-25T03:07:24.802Z,24.41
2022-07-25T03:09:51.477Z,24.40
2022-07-25T03:12:18.083Z,24.39
2022-07-25T03:14:44.663Z,24.30
2022-07-25T03:17:11.269Z,24.29
2022-07-25T03:19:37.876Z,24.26
2022-07-25T03:22:04.453Z,24.20
2022-07-25T03:24:31.475Z,24.15
2022-07-25T03:26:58.120Z,24.11
2022-07-25T03:29:24.764Z,24.02
2022-07-25T03:31:51.432Z,23.93
2022-07-25T03:34:18.123Z,23.96
2022-07-25T03:36:44.696Z,23.95
2022-07-25T03:39:11.297Z,23.96
2022-07-25T03:41:37.851Z,23.97
2022-07-25T03:44:04.872Z,23.92
2022-07-25T03:46:31.659Z,24.05
2022-07-25T03:48:58.345Z,24.12
2022-07-25T03:51:24.991Z,24.11
2022-07-25T03:54:03.847Z,24.08
2022-07-25T03:56:40.328Z,24.06
2022-07-25T03:59:13.470Z,24.02
2022-07-25T04:01:40.704Z,24.03
2022-07-25T04:04:07.963Z,24.03
2022-07-25T04:06:34.903Z,23.99
2022-07-25T04:09:02.107Z,23.96
2022-07-25T04:11:30.772Z,23.98
2022-07-25T04:13:58.317Z,23.95
2022-07-25T04:16:25.365Z,23.90
2022-07-25T04:18:55.446Z,23.89
2022-07-25T04:21:23.672Z,23.95
2022-07-25T04:23:51.004Z,24.02
2022-07-25T04:26:18.148Z,24.01
2022-07-25T04:28:44.741Z,23.98
2022-07-25T04:31:11.457Z,23.94
2022-07-25T04:33:38.730Z,23.99
2022-07-25T04:36:06.396Z,24.09
2022-07-25T04:38:33.597Z,24.18
2022-07-25T04:41:00.308Z,24.26
2022-07-25T04:43:26.899Z,24.37
2022-07-25T04:45:53.909Z,24.48
2022-07-25T04:48:20.523Z,24.45
2022-07-25T04:50:47.150Z,24.50
2022-07-25T04:53:13.749Z,24.56
2022-07-25T04:55:40.754Z,24.56
2022-07-25T04:58:07.326Z,24.53
2022-07-25T05:00:34.104Z,24.59
2022-07-25T05:03:00.754Z,24.66
2022-07-25T05:05:27.469Z,24.73
2022-07-25T05:07:58.870Z,24.88
2022-07-25T05:10:26.906Z,24.95
2022-07-25T05:12:54.192Z,25.01
2022-07-25T05:15:21.207Z,25.17
2022-07-25T05:17:48.332Z,25.28
2022-07-25T05:20:14.932Z,25.31
2022-07-25T05:22:42.406Z,25.53
2022-07-25T05:25:12.281Z,25.77
2022-07-25T05:27:39.770Z,25.82
2022-07-25T05:30:08.316Z,26.05
2022-07-25T05:32:34.996Z,26.30
2022-07-25T05:35:01.583Z,26.50
2022-07-25T05:37:28.170Z,26.68
2022-07-25T05:39:54.800Z,26.87
2022-07-25T05:42:21.447Z,27.23
2022-07-25T05:44:48.286Z,27.51
2022-07-25T05:47:14.923Z,27.80
2022-07-25T05:49:41.510Z,28.04
2022-07-25T05:52:12.564Z,28.26
2022-07-25T05:54:39.946Z,28.45
2022-07-25T05:57:06.466Z,28.61
2022-07-25T05:59:33.112Z,28.75
2022-07-25T06:02:01.909Z,29.06
2022-07-25T06:04:28.900Z,29.36
2022-07-25T06:06:55.735Z,29.75
2022-07-25T06:09:23.171Z,30.04
2022-07-25T06:11:59.777Z,30.46
2022-07-25T06:14:27.398Z,30.70
2022-07-25T06:16:55.136Z,31.01
2022-07-25T06:19:21.920Z,31.24
2022-07-25T06:21:48.540Z,31.52
2022-07-25T06:24:15.261Z,31.62
2022-07-25T06:26:41.886Z,31.83
2022-07-25T06:29:08.591Z,31.91
2022-07-25T06:31:35.261Z,32.09
2022-07-25T06:34:01.854Z,31.84
2022-07-25T06:36:32.567Z,32.22
2022-07-25T06:39:00.018Z,32.44
2022-07-25T06:41:26.918Z,32.48
2022-07-25T06:43:53.480Z,32.24
2022-07-25T06:46:20.386Z,32.29
2022-07-25T06:48:47.026Z,32.38
2022-07-25T06:51:13.740Z,32.37
2022-07-25T06:53:40.366Z,32.71
2022-07-25T06:56:07.143Z,33.18
2022-07-25T06:58:33.980Z,33.39
2022-07-25T07:01:01.382Z,33.42
2022-07-25T07:03:28.361Z,33.79
2022-07-25T07:05:55.365Z,34.12
2022-07-25T07:08:22.163Z,34.40
2022-07-25T07:10:48.749Z,34.40
2022-07-25T07:13:23.964Z,34.57
2022-07-25T07:15:51.692Z,34.88
2022-07-25T07:18:19.798Z,35.03
2022-07-25T07:20:47.280Z,34.95
2022-07-25T07:23:16.575Z,35.22
2022-07-25T07:25:45.743Z,34.97
2022-07-25T07:28:12.934Z,35.10
2022-07-25T07:31:13.360Z,34.86
2022-07-25T07:33:26.162Z,35.18
2022-07-25T07:35:55.863Z,35.40
2022-07-25T07:38:24.138Z,34.86
2022-07-25T07:40:50.687Z,35.20
2022-07-25T07:43:17.267Z,34.81
2022-07-25T07:45:43.954Z,35.50
2022-07-25T07:48:10.733Z,35.49
2022-07-25T07:50:37.789Z,34.99
2022-07-25T07:53:04.598Z,35.59
2022-07-25T07:55:48.507Z,35.67
2022-07-25T07:58:18.822Z,35.69
2022-07-25T08:00:47.655Z,35.64
2022-07-25T08:03:18.477Z,35.33
2022-07-25T08:05:48.425Z,35.66
2022-07-25T08:08:15.324Z,35.56
2022-07-25T08:10:43.843Z,34.93
2022-07-25T08:13:19.520Z,34.63
2022-07-25T08:15:48.505Z,34.17
2022-07-25T08:18:17.376Z,34.17
2022-07-25T08:20:45.720Z,34.62
2022-07-25T08:23:12.858Z,35.16
2022-07-25T08:25:40.033Z,35.46
2022-07-25T08:28:07.386Z,35.92
2022-07-25T08:30:35.751Z,36.72
2022-07-25T08:33:04.687Z,37.50
2022-07-25T08:35:32.624Z,37.95
2022-07-25T08:38:00.945Z,38.72
2022-07-25T08:40:29.658Z,39.15
2022-07-25T08:42:56.703Z,38.64
2022-07-25T08:45:23.460Z,39.50
2022-07-25T08:47:51.826Z,39.75
2022-07-25T08:50:38.678Z,39.44
2022-07-25T08:53:31.646Z,40.15
2022-07-25T08:55:53.002Z,40.11
2022-07-25T08:58:19.673Z,40.91
2022-07-25T09:00:46.791Z,41.91
2022-07-25T09:03:13.685Z,40.69
2022-07-25T09:05:40.886Z,41.84
2022-07-25T09:08:17.429Z,41.79
2022-07-25T09:10:50.066Z,41.44
2022-07-25T09:13:17.883Z,41.97
2022-07-25T09:15:51.377Z,42.20
2022-07-25T09:18:23.619Z,41.49
2022-07-25T09:21:01.564Z,41.65
2022-07-25T09:23:33.580Z,41.87
2022-07-25T09:26:04.022Z,42.00
2022-07-25T09:28:30.843Z,42.03
2022-07-25T09:30:59.903Z,42.02
2022-07-25T09:33:28.331Z,41.45
2022-07-25T09:35:56.020Z,41.95
2022-07-25T09:38:24.104Z,40.66
2022-07-25T09:40:58.568Z,40.10
2022-07-25T09:43:38.838Z,39.85
2022-07-25T09:46:07.009Z,40.19
2022-07-25T09:48:35.378Z,40.24
2022-07-25T09:51:03.026Z,40.12
2022-07-25T09:53:29.863Z,39.92
2022-07-25T09:55:57.537Z,39.84
2022-07-25T09:58:25.250Z,39.21
2022-07-25T10:00:56.340Z,39.08
2022-07-25T10:03:51.468Z,39.10
2022-07-25T10:06:28.797Z,40.16
2022-07-25T10:08:55.720Z,41.40
2022-07-25T10:11:27.825Z,42.22
2022-07-25T10:13:55.391Z,43.97
2022-07-25T10:16:24.357Z,45.65
2022-07-25T10:18:57.127Z,47.49
2022-07-25T10:21:27.666Z,47.44
2022-07-25T10:24:07.904Z,47.69
2022-07-25T10:26:40.089Z,46.98
2022-07-25T10:29:11.339Z,45.31
2022-07-25T10:31:49.342Z,44.11
2022-07-25T10:34:16.773Z,42.39
2022-07-25T10:36:48.333Z,41.62
2022-07-25T10:39:17.191Z,41.99
2022-07-25T10:41:55.756Z,41.36
2022-07-25T10:44:22.531Z,40.21
2022-07-25T10:46:50.286Z,41.61
2022-07-25T10:49:31.014Z,42.79
2022-07-25T10:52:00.736Z,42.78
2022-07-25T10:54:36.991Z,41.76
2022-07-25T10:57:05.956Z,40.52
2022-07-25T10:59:39.850Z,39.56
2022-07-25T11:02:09.626Z,39.29
2022-07-25T11:04:36.629Z,39.21
2022-07-25T11:07:14.461Z,39.92
2022-07-25T11:09:43.946Z,42.27
2022-07-25T11:12:15.526Z,42.87
2022-07-25T11:14:42.793Z,41.28
2022-07-25T11:17:15.785Z,39.67
2022-07-25T11:19:44.915Z,39.23
2022-07-25T11:22:12.250Z,38.81
2022-07-25T11:24:43.272Z,38.91
2022-07-25T11:27:12.553Z,39.27
2022-07-25T11:29:40.262Z,39.33
2022-07-25T11:32:10.474Z,41.14
2022-07-25T11:34:44.020Z,41.98
2022-07-25T11:37:12.489Z,41.75
2022-07-25T11:39:41.194Z,40.37
2022-07-25T11:42:10.665Z,40.20
2022-07-25T11:44:47.648Z,39.73
2022-07-25T11:47:32.281Z,38.91
2022-07-25T11:50:02.532Z,38.90
2022-07-25T11:52:32.013Z,38.63
2022-07-25T11:55:03.730Z,38.66
2022-07-25T11:57:32.625Z,38.72
2022-07-25T12:00:00.621Z,39.23
2022-07-25T12:02:33.346Z,39.97
2022-07-25T12:05:06.671Z,40.39
2022-07-25T12:07:45.240Z,40.54
2022-07-25T12:10:35.073Z,40.44
2022-07-25T12:13:04.005Z,40.34
2022-07-25T12:15:33.335Z,40.95
2022-07-25T12:18:01.873Z,41.16
2022-07-25T12:20:31.440Z,40.52
2022-07-25T12:23:08.939Z,40.16
2022-07-25T12:25:40.755Z,39.90
2022-07-25T12:28:08.668Z,40.47
2022-07-25T12:30:35.305Z,39.80
2022-07-25T12:33:02.275Z,39.66
2022-07-25T12:35:29.245Z,40.19
2022-07-25T12:37:55.936Z,39.95
2022-07-25T12:40:22.752Z,39.68
2022-07-25T12:42:49.873Z,39.33
2022-07-25T12:45:17.765Z,38.96
2022-07-25T12:47:46.046Z,38.66
2022-07-25T12:50:13.699Z,38.90
2022-07-25T12:52:41.296Z,39.11
2022-07-25T12:55:10.053Z,38.75
2022-07-25T12:57:37.312Z,38.41
2022-07-25T13:00:10.012Z,38.79
2022-07-25T13:02:37.212Z,39.14
2022-07-25T13:05:04.626Z,39.19
2022-07-25T13:07:32.255Z,39.08
2022-07-25T13:09:58.887Z,38.21
2022-07-25T13:12:25.442Z,37.68
2022-07-25T13:14:52.293Z,37.56
2022-07-25T13:17:21.381Z,37.14
2022-07-25T13:19:51.909Z,36.80
2022-07-25T13:22:18.511Z,36.47
2022-07-25T13:24:45.080Z,36.44
2022-07-25T13:27:11.725Z,36.26
2022-07-25T13:29:38.345Z,36.37
2022-07-25T13:32:05.419Z,36.64
2022-07-25T13:34:32.778Z,36.56
2022-07-25T13:36:59.605Z,36.30
2022-07-25T13:39:27.119Z,36.38
2022-07-25T13:41:53.797Z,36.14
2022-07-25T13:44:20.292Z,36.35
2022-07-25T13:46:49.930Z,36.23
2022-07-25T13:49:17.522Z,36.46
2022-07-25T13:51:45.531Z,36.72
2022-07-25T13:54:12.764Z,36.54
2022-07-25T13:56:40.524Z,36.06
2022-07-25T13:59:08.583Z,35.87
2022-07-25T14:01:35.773Z,36.05
2022-07-25T14:04:02.469Z,36.22
2022-07-25T14:06:29.102Z,36.07
2022-07-25T14:08:55.638Z,36.14
2022-07-25T14:11:24.874Z,35.98
2022-07-25T14:13:55.993Z,35.28
2022-07-25T14:16:22.579Z,35.28
2022-07-25T14:18:49.262Z,34.93
2022-07-25T14:21:16.272Z,35.06
2022-07-25T14:23:42.950Z,35.16
2022-07-25T14:26:09.601Z,35.10
2022-07-25T14:28:36.207Z,34.77
2022-07-25T14:31:02.853Z,34.90
2022-07-25T14:33:29.408Z,34.93
2022-07-25T14:35:56.370Z,34.73
2022-07-25T14:38:22.993Z,34.60
2022-07-25T14:40:49.704Z,33.99
2022-07-25T14:43:16.345Z,34.07
2022-07-25T14:45:43.058Z,33.87
2022-07-25T14:48:09.642Z,33.81
2022-07-25T14:50:36.236Z,34.01
2022-07-25T14:53:02.780Z,33.82
2022-07-25T14:55:29.366Z,33.88
2022-07-25T14:57:57.815Z,33.83
2022-07-25T15:00:29.169Z,33.53
2022-07-25T15:02:56.814Z,33.25
2022-07-25T15:05:23.340Z,33.24
2022-07-25T15:07:49.955Z,33.69
2022-07-25T15:10:17.166Z,33.90
2022-07-25T15:12:43.961Z,33.81
2022-07-25T15:15:11.426Z,33.57
2022-07-25T15:17:38.709Z,33.55
2022-07-25T15:20:05.888Z,33.93
2022-07-25T15:22:32.500Z,34.02
2022-07-25T15:25:27.555Z,34.17
2022-07-25T15:27:45.607Z,33.83
2022-07-25T15:30:12.859Z,33.81
2022-07-25T15:32:40.165Z,33.82
2022-07-25T15:35:07.395Z,33.78
2022-07-25T15:37:34.057Z,33.69
2022-07-25T15:40:00.741Z,33.57
2022-07-25T15:42:29.365Z,33.78
2022-07-25T15:45:29.821Z,33.84
2022-07-25T15:47:46.239Z,33.51
2022-07-25T15:50:18.065Z,33.65
2022-07-25T15:52:44.653Z,33.50
2022-07-25T15:55:11.265Z,33.40
2022-07-25T15:57:37.920Z,33.32
2022-07-25T16:00:07.512Z,33.33
2022-07-25T16:02:34.944Z,33.66
2022-07-25T16:05:03.099Z,33.53
2022-07-25T16:07:29.926Z,33.16
2022-07-25T16:09:57.141Z,33.10
2022-07-25T16:12:28.278Z,32.91
2022-07-25T16:14:55.831Z,32.72
2022-07-25T16:17:23.162Z,32.78
2022-07-25T16:19:50.013Z,32.98
2022-07-25T16:22:16.920Z,33.02
2022-07-25T16:24:43.662Z,33.23
2022-07-25T16:27:10.399Z,33.13
2022-07-25T16:29:37.610Z,33.09
2022-07-25T16:32:05.409Z,32.86
2022-07-25T16:34:32.787Z,32.77
2022-07-25T16:37:01.233Z,32.91
2022-07-25T16:39:28.075Z,32.81
2022-07-25T16:41:54.978Z,32.65
2022-07-25T16:44:23.699Z,32.51
2022-07-25T16:46:50.845Z,32.51
2022-07-25T16:49:17.684Z,32.47
2022-07-25T16:51:45.082Z,32.27
2022-07-25T16:54:12.338Z,32.16
2022-07-25T16:56:39.051Z,32.05
2022-07-25T16:59:06.528Z,32.02
2022-07-25T17:01:35.048Z,32.18
2022-07-25T17:04:02.049Z,31.90
2022-07-25T17:06:28.811Z,31.99
2022-07-25T17:08:55.629Z,32.06
2022-07-25T17:11:22.488Z,31.97
2022-07-25T17:13:49.058Z,32.03
2022-07-25T17:16:15.757Z,32.02
2022-07-25T17:18:42.429Z,31.94
2022-07-25T17:21:09.549Z,31.80
2022-07-25T17:23:36.256Z,31.73
2022-07-25T17:26:05.216Z,31.63
2022-07-25T17:28:32.126Z,31.63
2022-07-25T17:30:58.808Z,31.69
2022-07-25T17:33:25.440Z,31.76
2022-07-25T17:35:52.420Z,31.59
2022-07-25T17:38:23.737Z,31.49
2022-07-25T17:40:52.563Z,31.21
2022-07-25T17:43:19.637Z,30.99
2022-07-25T17:45:46.286Z,30.98
2022-07-25T17:48:12.867Z,30.96
2022-07-25T17:50:39.518Z,30.79
2022-07-25T17:53:06.084Z,30.65
2022-07-25T17:55:38.232Z,30.79
2022-07-25T17:58:05.576Z,30.60
2022-07-25T18:00:32.392Z,30.30
2022-07-25T18:02:59.357Z,30.36
2022-07-25T18:05:26.112Z,30.26
2022-07-25T18:07:53.533Z,30.23
2022-07-25T18:10:21.775Z,30.20
2022-07-25T18:12:48.745Z,30.15
2022-07-25T18:15:15.582Z,30.32
2022-07-25T18:17:44.209Z,30.28
2022-07-25T18:20:12.191Z,30.17
2022-07-25T18:22:41.079Z,30.05
2022-07-25T18:25:11.204Z,30.30
2022-07-25T18:27:41.314Z,30.20
2022-07-25T18:30:08.828Z,30.14
2022-07-25T18:32:35.795Z,30.24
2022-07-25T18:35:02.608Z,30.21
2022-07-25T18:37:29.221Z,30.04
2022-07-25T18:39:55.850Z,29.77
2022-07-25T18:42:26.323Z,29.64
2022-07-25T18:44:56.383Z,29.70
2022-07-25T18:47:25.509Z,29.63
2022-07-25T18:49:53.659Z,29.42
2022-07-25T18:52:21.567Z,29.34
2022-07-25T18:54:48.201Z,29.22
2022-07-25T18:57:15.343Z,29.16
2022-07-25T18:59:42.140Z,29.25
2022-07-25T19:02:08.951Z,29.29
2022-07-25T19:04:35.653Z,29.04
2022-07-25T19:07:02.497Z,29.11
2022-07-25T19:09:29.104Z,28.97
2022-07-25T19:11:56.597Z,28.89
2022-07-25T19:14:26.029Z,29.04
2022-07-25T19:16:53.801Z,29.07
2022-07-25T19:19:20.706Z,28.98
2022-07-25T19:21:47.507Z,29.01
2022-07-25T19:24:14.229Z,28.99
2022-07-25T19:26:41.420Z,28.98
2022-07-25T19:29:09.268Z,28.84
2022-07-25T19:31:38.106Z,28.86
2022-07-25T19:34:06.628Z,28.72
2022-07-25T19:36:33.622Z,28.91
2022-07-25T19:39:00.886Z,28.63
2022-07-25T19:41:28.384Z,28.65
2022-07-25T19:43:55.008Z,28.73
2022-07-25T19:46:22.133Z,28.69
2022-07-25T19:48:50.067Z,28.61
2022-07-25T19:51:16.788Z,28.59
2022-07-25T19:53:43.379Z,28.74
2022-07-25T19:56:09.938Z,28.63
2022-07-25T19:58:38.971Z,28.59
2022-07-25T20:01:07.954Z,28.64
2022-07-25T20:03:35.067Z,28.55
2022-07-25T20:06:07.520Z,28.65
2022-07-25T20:08:34.612Z,28.71
2022-07-25T20:11:01.343Z,28.67
2022-07-25T20:13:29.573Z,28.67
2022-07-25T20:15:56.519Z,28.75
2022-07-25T20:18:23.150Z,28.71
2022-07-25T20:20:49.756Z,28.74
2022-07-25T20:23:16.439Z,28.70
2022-07-25T20:25:43.036Z,28.59
2022-07-25T20:28:09.775Z,28.80
2022-07-25T20:30:36.616Z,28.83
2022-07-25T20:33:05.347Z,28.81
2022-07-25T20:35:36.149Z,28.72
2022-07-25T20:38:02.842Z,28.55
2022-07-25T20:40:36.196Z,28.39
2022-07-25T20:43:04.380Z,28.46
2022-07-25T20:45:30.990Z,28.40
2022-07-25T20:47:57.715Z,28.46
2022-07-25T20:50:24.397Z,28.42
2022-07-25T20:52:51.281Z,28.34
2022-07-25T20:55:17.854Z,28.23
2022-07-25T20:57:50.138Z,28.16
2022-07-25T21:00:17.198Z,28.14
2022-07-25T21:02:43.850Z,28.00
2022-07-25T21:05:10.635Z,28.12
2022-07-25T21:07:37.251Z,28.16
2022-07-25T21:10:04.594Z,28.07
2022-07-25T21:12:33.041Z,27.91
2022-07-25T21:15:01.248Z,27.94
2022-07-25T21:17:28.309Z,28.05
2022-07-25T21:19:55.026Z,28.00
2022-07-25T21:22:22.146Z,28.05
2022-07-25T21:24:49.628Z,28.03
2022-07-25T21:27:17.319Z,27.96
2022-07-25T21:29:44.498Z,27.94
2022-07-25T21:32:13.533Z,28.02
2022-07-25T21:34:41.009Z,28.05
2022-07-25T21:37:07.656Z,27.93
2022-07-25T21:39:34.248Z,27.92
2022-07-25T21:42:01.858Z,27.98
2022-07-25T21:44:28.560Z,27.93
2022-07-25T21:46:55.114Z,27.90
2022-07-25T21:49:42.030Z,27.88
2022-07-25T21:52:13.686Z,27.93
2022-07-25T21:54:44.939Z,27.82
2022-07-25T21:57:13.693Z,27.80
2022-07-25T21:59:44.572Z,27.76
2022-07-25T22:02:11.710Z,27.71
2022-07-25T22:04:38.657Z,27.64
2022-07-25T22:07:05.968Z,27.65
2022-07-25T22:09:32.598Z,27.58
2022-07-25T22:11:59.337Z,27.52
2022-07-25T22:14:26.000Z,27.48
2022-07-25T22:16:53.044Z,27.42
2022-07-25T22:19:22.356Z,27.31
2022-07-25T22:21:51.894Z,27.07
2022-07-25T22:24:18.478Z,27.02
2022-07-25T22:26:45.547Z,26.94
2022-07-25T22:29:12.495Z,26.97
2022-07-25T22:31:39.457Z,26.96
2022-07-25T22:34:06.647Z,26.91
2022-07-25T22:36:33.206Z,26.89
2022-07-25T22:38:59.821Z,26.87
2022-07-25T22:41:26.430Z,26.92
2022-07-25T22:43:58.756Z,26.89
2022-07-25T22:46:28.250Z,26.68
2022-07-25T22:48:55.453Z,26.53
2022-07-25T22:51:23.078Z,26.45
2022-07-25T22:53:49.665Z,26.22
2022-07-25T22:56:16.884Z,26.10
2022-07-25T22:58:43.730Z,26.05
2022-07-25T23:01:12.597Z,26.11
2022-07-25T23:03:39.219Z,26.00
2022-07-25T23:06:06.547Z,25.82
2022-07-25T23:08:33.337Z,25.85
2022-07-25T23:11:00.053Z,25.71
2022-07-25T23:13:26.581Z,25.63
2022-07-25T23:15:53.161Z,25.62
2022-07-25T23:18:19.831Z,25.59
2022-07-25T23:20:46.433Z,25.59
2022-07-25T23:23:13.615Z,25.54
2022-07-25T23:25:40.405Z,25.64
2022-07-25T23:28:06.912Z,25.57
2022-07-25T23:30:39.710Z,25.55
2022-07-25T23:33:07.477Z,25.62
2022-07-25T23:35:34.715Z,25.52
2022-07-25T23:38:01.382Z,25.56
2022-07-25T23:40:28.091Z,25.27
2022-07-25T23:42:54.971Z,25.31
2022-07-25T23:45:24.924Z,25.36
2022-07-25T23:47:54.767Z,25.36
2022-07-25T23:50:22.541Z,25.28
2022-07-25T23:52:49.200Z,25.03
2022-07-25T23:55:15.733Z,25.10
2022-07-25T23:57:43.057Z,25.18
